createdAt,value
2022-09-14T00:00:14.858Z,990.58
2022-09-14T00:01:25.207Z,990.51
2022-09-14T00:02:17.107Z,990.49
2022-09-14T00:03:14.880Z,990.44
2022-09-14T00:04:14.841Z,990.50
2022-09-14T00:05:14.818Z,990.42
2022-09-14T00:06:14.847Z,990.41
2022-09-14T00:07:14.837Z,990.46
2022-09-14T00:08:14.805Z,990.53
2022-09-14T00:09:14.833Z,990.50
2022-09-14T00:10:14.793Z,990.51
2022-09-14T00:11:14.786Z,990.46
2022-09-14T00:12:14.801Z,990.54
2022-09-14T00:13:14.783Z,990.48
2022-09-14T00:14:14.757Z,990.48
2022-09-14T00:15:14.778Z,990.48
2022-09-14T00:16:14.791Z,990.51
2022-09-14T00:17:14.769Z,990.44
2022-09-14T00:18:14.771Z,990.46
2022-09-14T00:19:14.733Z,990.41
2022-09-14T00:20:14.733Z,990.40
2022-09-14T00:21:14.729Z,990.39
2022-09-14T00:22:14.743Z,990.36
2022-09-14T00:23:14.718Z,990.44
2022-09-14T00:24:14.717Z,990.42
2022-09-14T00:25:14.694Z,990.47
2022-09-14T00:26:14.705Z,990.42
2022-09-14T00:27:14.721Z,990.37
2022-09-14T00:28:14.685Z,990.37
2022-09-14T00:29:14.677Z,990.34
2022-09-14T00:30:14.700Z,990.37
2022-09-14T00:31:14.852Z,990.32
2022-09-14T00:32:14.711Z,990.37
2022-09-14T00:33:14.673Z,990.36
2022-09-14T00:34:14.641Z,990.31
2022-09-14T00:35:14.643Z,990.34
2022-09-14T00:36:14.641Z,990.35
2022-09-14T00:37:14.629Z,990.31
2022-09-14T00:38:14.612Z,990.29
2022-09-14T00:39:14.629Z,990.33
2022-09-14T00:40:14.720Z,990.30
2022-09-14T00:41:14.604Z,990.28
2022-09-14T00:42:14.610Z,990.27
2022-09-14T00:43:14.593Z,990.22
2022-09-14T00:44:14.587Z,990.19
2022-09-14T00:45:14.580Z,990.15
2022-09-14T00:46:14.632Z,990.17
2022-09-14T00:47:14.573Z,990.13
2022-09-14T00:48:14.634Z,990.12
2022-09-14T00:49:14.549Z,990.12
2022-09-14T00:50:14.545Z,990.09
2022-09-14T00:51:14.557Z,990.06
2022-09-14T00:52:14.554Z,990.06
2022-09-14T00:53:14.530Z,990.10
2022-09-14T00:54:14.515Z,990.08
2022-09-14T00:55:14.519Z,990.02
2022-09-14T00:56:14.509Z,990.04
2022-09-14T00:57:14.532Z,990.04
2022-09-14T00:58:14.510Z,990.00
2022-09-14T00:59:14.493Z,990.03
2022-09-14T01:00:14.500Z,989.99
2022-09-14T01:01:14.521Z,990.03
2022-09-14T01:02:14.519Z,989.97
2022-09-14T01:03:14.484Z,989.95
2022-09-14T01:04:14.484Z,989.93
2022-09-14T01:05:14.451Z,989.90
2022-09-14T01:06:14.452Z,989.95
2022-09-14T01:07:14.436Z,989.96
2022-09-14T01:08:14.434Z,990.02
2022-09-14T01:09:14.449Z,989.91
2022-09-14T01:10:14.425Z,989.87
2022-09-14T01:11:14.400Z,989.89
2022-09-14T01:12:14.412Z,989.88
2022-09-14T01:13:14.394Z,989.94
2022-09-14T01:14:14.400Z,989.88
2022-09-14T01:15:14.412Z,989.88
2022-09-14T01:16:14.473Z,989.90
2022-09-14T01:17:14.378Z,989.94
2022-09-14T01:18:14.388Z,989.88
2022-09-14T01:19:14.377Z,989.89
2022-09-14T01:20:14.356Z,989.89
2022-09-14T01:21:14.346Z,989.83
2022-09-14T01:22:14.348Z,989.83
2022-09-14T01:23:14.327Z,989.89
2022-09-14T01:24:14.336Z,989.89
2022-09-14T01:25:14.333Z,989.89
2022-09-14T01:26:14.296Z,989.93
2022-09-14T01:27:14.300Z,989.93
2022-09-14T01:28:14.279Z,989.84
2022-09-14T01:29:14.290Z,989.88
2022-09-14T01:30:14.283Z,989.86
2022-09-14T01:31:14.317Z,989.87
2022-09-14T01:32:14.278Z,989.83
2022-09-14T01:33:14.316Z,989.86
2022-09-14T01:34:14.268Z,989.86
2022-09-14T01:35:16.109Z,989.87
2022-09-14T01:36:15.256Z,989.82
2022-09-14T01:37:14.236Z,989.78
2022-09-14T01:38:14.225Z,989.81
2022-09-14T01:39:14.246Z,989.83
2022-09-14T01:40:14.262Z,989.81
2022-09-14T01:41:14.226Z,989.79
2022-09-14T01:42:14.251Z,989.84
2022-09-14T01:43:14.193Z,989.84
2022-09-14T01:44:14.197Z,989.90
2022-09-14T01:45:14.202Z,989.81
2022-09-14T01:46:14.231Z,989.81
2022-09-14T01:47:14.186Z,989.83
2022-09-14T01:48:14.178Z,989.81
2022-09-14T01:49:14.165Z,989.82
2022-09-14T01:50:14.188Z,989.79
2022-09-14T01:51:14.234Z,989.79
2022-09-14T01:52:14.144Z,989.81
2022-09-14T01:53:14.145Z,989.77
2022-09-14T01:54:14.151Z,989.82
2022-09-14T01:55:14.112Z,989.85
2022-09-14T01:56:14.916Z,989.80
2022-09-14T01:57:14.101Z,989.82
2022-09-14T01:58:14.121Z,989.83
2022-09-14T01:59:14.088Z,989.81
2022-09-14T02:00:14.092Z,989.83
2022-09-14T02:01:14.195Z,989.84
2022-09-14T02:02:14.125Z,989.82
2022-09-14T02:03:14.067Z,989.88
2022-09-14T02:04:14.075Z,989.88
2022-09-14T02:05:14.061Z,989.88
2022-09-14T02:06:14.052Z,989.84
2022-09-14T02:07:14.082Z,989.85
2022-09-14T02:08:14.036Z,989.79
2022-09-14T02:09:14.028Z,989.82
2022-09-14T02:10:14.027Z,989.79
2022-09-14T02:11:14.031Z,989.74
2022-09-14T02:12:14.015Z,989.74
2022-09-14T02:13:14.051Z,989.77
2022-09-14T02:14:14.004Z,989.74
2022-09-14T02:15:13.995Z,989.73
2022-09-14T02:16:14.037Z,989.67
2022-09-14T02:17:13.973Z,989.66
2022-09-14T02:18:13.995Z,989.62
2022-09-14T02:19:14.000Z,989.66
2022-09-14T02:20:13.952Z,989.65
2022-09-14T02:21:13.943Z,989.64
2022-09-14T02:22:13.985Z,989.62
2022-09-14T02:23:13.944Z,989.66
2022-09-14T02:24:13.952Z,989.65
2022-09-14T02:25:13.933Z,989.65
2022-09-14T02:26:13.924Z,989.67
2022-09-14T02:27:13.899Z,989.65
2022-09-14T02:28:13.919Z,989.60
2022-09-14T02:29:46.355Z,989.64
2022-09-14T02:30:13.895Z,989.62
2022-09-14T02:31:13.916Z,989.61
2022-09-14T02:32:13.876Z,989.60
2022-09-14T02:33:13.868Z,989.62
2022-09-14T02:34:13.855Z,989.51
2022-09-14T02:35:13.881Z,989.53
2022-09-14T02:36:13.847Z,989.51
2022-09-14T02:37:13.852Z,989.49
2022-09-14T02:38:13.844Z,989.50
2022-09-14T02:39:13.823Z,989.46
2022-09-14T02:40:13.944Z,989.47
2022-09-14T02:41:13.818Z,989.47
2022-09-14T02:42:13.826Z,989.45
2022-09-14T02:43:13.819Z,989.40
2022-09-14T02:44:13.825Z,989.42
2022-09-14T02:45:13.870Z,989.42
2022-09-14T02:46:13.822Z,989.39
2022-09-14T02:47:13.846Z,989.41
2022-09-14T02:48:13.782Z,989.37
2022-09-14T02:49:13.754Z,989.35
2022-09-14T02:50:13.766Z,989.38
2022-09-14T02:51:13.763Z,989.39
2022-09-14T02:52:13.743Z,989.47
2022-09-14T02:53:13.743Z,989.48
2022-09-14T02:54:13.734Z,989.44
2022-09-14T02:55:13.735Z,989.41
2022-09-14T02:56:13.739Z,989.45
2022-09-14T02:57:13.727Z,989.38
2022-09-14T02:58:13.758Z,989.43
2022-09-14T02:59:13.718Z,989.47
2022-09-14T03:00:13.721Z,989.40
2022-09-14T03:01:13.752Z,989.47
2022-09-14T03:02:13.736Z,989.45
2022-09-14T03:03:13.675Z,989.42
2022-09-14T03:04:13.669Z,989.41
2022-09-14T03:05:13.681Z,989.47
2022-09-14T03:06:13.665Z,989.41
2022-09-14T03:07:13.696Z,989.40
2022-09-14T03:08:13.636Z,989.41
2022-09-14T03:09:13.660Z,989.41
2022-09-14T03:10:13.624Z,989.38
2022-09-14T03:11:13.719Z,989.35
2022-09-14T03:12:13.621Z,989.29
2022-09-14T03:13:13.604Z,989.27
2022-09-14T03:14:13.612Z,989.17
2022-09-14T03:15:13.606Z,989.20
2022-09-14T03:16:13.614Z,989.17
2022-09-14T03:17:13.596Z,989.15
2022-09-14T03:18:14.605Z,989.13
2022-09-14T03:19:14.580Z,989.10
2022-09-14T03:20:13.564Z,989.13
2022-09-14T03:21:13.573Z,989.10
2022-09-14T03:22:13.577Z,989.17
2022-09-14T03:23:13.554Z,989.10
2022-09-14T03:24:13.553Z,989.11
2022-09-14T03:25:13.529Z,989.08
2022-09-14T03:26:13.524Z,989.12
2022-09-14T03:27:13.514Z,989.13
2022-09-14T03:28:13.504Z,989.11
2022-09-14T03:29:13.504Z,989.16
2022-09-14T03:30:13.513Z,989.13
2022-09-14T03:31:13.585Z,989.13
2022-09-14T03:32:13.489Z,989.08
2022-09-14T03:33:13.475Z,989.06
2022-09-14T03:34:13.476Z,989.08
2022-09-14T03:35:13.464Z,989.06
2022-09-14T03:36:13.473Z,989.08
2022-09-14T03:37:13.453Z,988.97
2022-09-14T03:38:13.432Z,989.05
2022-09-14T03:39:13.432Z,988.98
2022-09-14T03:40:15.940Z,989.01
2022-09-14T03:41:13.455Z,988.98
2022-09-14T03:42:13.419Z,989.00
2022-09-14T03:43:13.413Z,989.01
2022-09-14T03:44:13.396Z,989.00
2022-09-14T03:45:13.412Z,989.09
2022-09-14T03:46:13.455Z,989.01
2022-09-14T03:47:13.380Z,988.96
2022-09-14T03:48:13.376Z,989.03
2022-09-14T03:49:13.364Z,989.02
2022-09-14T03:50:13.356Z,988.94
2022-09-14T03:51:14.377Z,988.96
2022-09-14T03:52:13.356Z,989.03
2022-09-14T03:53:13.332Z,988.89
2022-09-14T03:54:13.356Z,988.90
2022-09-14T03:55:13.331Z,988.86
2022-09-14T03:56:13.316Z,988.83
2022-09-14T03:57:13.331Z,988.82
2022-09-14T03:58:13.324Z,988.82
2022-09-14T03:59:13.302Z,988.84
2022-09-14T04:00:13.306Z,988.87
2022-09-14T04:01:13.283Z,988.86
2022-09-14T04:02:13.354Z,988.90
2022-09-14T04:03:13.314Z,988.91
2022-09-14T04:04:13.263Z,988.90
2022-09-14T04:05:13.268Z,988.88
2022-09-14T04:06:13.264Z,988.86
2022-09-14T04:07:13.251Z,988.87
2022-09-14T04:08:13.275Z,988.92
2022-09-14T04:09:13.227Z,988.90
2022-09-14T04:10:13.224Z,988.93
2022-09-14T04:11:13.219Z,988.93
2022-09-14T04:12:13.228Z,988.93
2022-09-14T04:13:13.215Z,988.90
2022-09-14T04:14:13.212Z,988.94
2022-09-14T04:15:13.357Z,988.93
2022-09-14T04:16:13.238Z,988.90
2022-09-14T04:17:13.167Z,988.97
2022-09-14T04:18:13.168Z,988.87
2022-09-14T04:19:13.175Z,988.89
2022-09-14T04:20:13.190Z,988.85
2022-09-14T04:21:13.153Z,988.83
2022-09-14T04:22:13.168Z,988.82
2022-09-14T04:23:13.144Z,988.83
2022-09-14T04:24:15.843Z,988.81
2022-09-14T04:25:14.172Z,988.78
2022-09-14T04:26:13.128Z,988.77
2022-09-14T04:27:13.119Z,988.81
2022-09-14T04:28:20.848Z,988.79
2022-09-14T04:29:15.106Z,988.82
2022-09-14T04:30:13.114Z,988.82
2022-09-14T04:31:13.213Z,988.82
2022-09-14T04:32:13.093Z,988.78
2022-09-14T04:33:13.090Z,988.78
2022-09-14T04:34:13.092Z,988.80
2022-09-14T04:35:13.063Z,988.82
2022-09-14T04:36:14.083Z,988.86
2022-09-14T04:37:13.067Z,988.81
2022-09-14T04:38:13.047Z,988.80
2022-09-14T04:39:13.042Z,988.76
2022-09-14T04:40:13.172Z,988.75
2022-09-14T04:41:13.052Z,988.82
2022-09-14T04:42:13.010Z,988.81
2022-09-14T04:43:13.015Z,988.76
2022-09-14T04:44:13.012Z,988.82
2022-09-14T04:45:13.023Z,988.78
2022-09-14T04:46:13.080Z,988.78
2022-09-14T04:47:13.028Z,988.75
2022-09-14T04:48:12.974Z,988.77
2022-09-14T04:49:12.996Z,988.75
2022-09-14T04:50:12.975Z,988.78
2022-09-14T04:51:12.959Z,988.75
2022-09-14T04:52:13.031Z,988.80
2022-09-14T04:53:12.968Z,988.72
2022-09-14T04:54:12.955Z,988.75
2022-09-14T04:55:12.929Z,988.74
2022-09-14T04:56:13.509Z,988.73
2022-09-14T04:57:12.913Z,988.73
2022-09-14T04:58:12.998Z,988.77
2022-09-14T04:59:12.936Z,988.71
2022-09-14T05:00:13.552Z,988.69
2022-09-14T05:01:12.926Z,988.68
2022-09-14T05:02:12.961Z,988.69
2022-09-14T05:03:13.008Z,988.69
2022-09-14T05:04:12.918Z,988.66
2022-09-14T05:05:12.903Z,988.69
2022-09-14T05:06:12.862Z,988.71
2022-09-14T05:07:12.926Z,988.70
2022-09-14T05:08:12.918Z,988.69
2022-09-14T05:09:12.835Z,988.70
2022-09-14T05:10:12.855Z,988.76
2022-09-14T05:11:12.823Z,988.68
2022-09-14T05:12:12.819Z,988.67
2022-09-14T05:13:14.064Z,988.69
2022-09-14T05:14:12.811Z,988.66
2022-09-14T05:15:12.814Z,988.64
2022-09-14T05:16:12.841Z,988.67
2022-09-14T05:17:12.820Z,988.68
2022-09-14T05:18:12.796Z,988.68
2022-09-14T05:19:12.791Z,988.67
2022-09-14T05:20:12.782Z,988.68
2022-09-14T05:21:12.757Z,988.65
2022-09-14T05:22:12.753Z,988.65
2022-09-14T05:23:13.452Z,988.71
2022-09-14T05:24:12.758Z,988.69
2022-09-14T05:25:12.744Z,988.72
2022-09-14T05:26:12.720Z,988.75
2022-09-14T05:27:12.760Z,988.66
2022-09-14T05:28:12.705Z,988.69
2022-09-14T05:29:12.697Z,988.77
2022-09-14T05:30:12.737Z,988.71
2022-09-14T05:31:12.720Z,988.77
2022-09-14T05:32:12.685Z,988.73
2022-09-14T05:33:12.677Z,988.63
2022-09-14T05:34:12.706Z,988.68
2022-09-14T05:35:12.728Z,988.68
2022-09-14T05:36:12.658Z,988.64
2022-09-14T05:37:12.654Z,988.64
2022-09-14T05:38:12.657Z,988.67
2022-09-14T05:39:12.623Z,988.66
2022-09-14T05:40:12.759Z,988.66
2022-09-14T05:41:12.624Z,988.66
2022-09-14T05:42:12.617Z,988.72
2022-09-14T05:43:12.600Z,988.71
2022-09-14T05:44:12.575Z,988.70
2022-09-14T05:45:12.588Z,988.67
2022-09-14T05:46:12.655Z,988.66
2022-09-14T05:47:12.568Z,988.63
2022-09-14T05:48:12.560Z,988.63
2022-09-14T05:49:12.564Z,988.61
2022-09-14T05:50:12.576Z,988.61
2022-09-14T05:51:12.552Z,988.60
2022-09-14T05:52:12.548Z,988.59
2022-09-14T05:53:12.715Z,988.59
2022-09-14T05:54:12.523Z,988.61
2022-09-14T05:55:12.509Z,988.59
2022-09-14T05:56:12.513Z,988.56
2022-09-14T05:57:12.531Z,988.61
2022-09-14T05:58:12.599Z,988.57
2022-09-14T05:59:12.482Z,988.61
2022-09-14T06:00:12.496Z,988.55
2022-09-14T06:01:12.477Z,988.53
2022-09-14T06:02:16.325Z,988.55
2022-09-14T06:03:14.494Z,988.53
2022-09-14T06:04:12.461Z,988.55
2022-09-14T06:05:12.501Z,988.56
2022-09-14T06:06:12.442Z,988.57
2022-09-14T06:07:18.800Z,988.56
2022-09-14T06:08:14.454Z,988.57
2022-09-14T06:09:12.422Z,988.55
2022-09-14T06:10:12.453Z,988.56
2022-09-14T06:11:12.418Z,988.57
2022-09-14T06:12:12.407Z,988.60
2022-09-14T06:13:12.444Z,988.60
2022-09-14T06:14:12.403Z,988.60
2022-09-14T06:15:12.404Z,988.55
2022-09-14T06:16:12.377Z,988.55
2022-09-14T06:17:12.360Z,988.54
2022-09-14T06:18:12.357Z,988.59
2022-09-14T06:19:12.390Z,988.52
2022-09-14T06:20:12.344Z,988.62
2022-09-14T06:21:12.354Z,988.58
2022-09-14T06:22:12.326Z,988.60
2022-09-14T06:23:12.346Z,988.54
2022-09-14T06:24:12.322Z,988.58
2022-09-14T06:25:12.318Z,988.53
2022-09-14T06:26:12.302Z,988.58
2022-09-14T06:27:12.312Z,988.57
2022-09-14T06:28:12.295Z,988.52
2022-09-14T06:29:12.324Z,988.50
2022-09-14T06:30:13.044Z,988.51
2022-09-14T06:31:12.268Z,988.60
2022-09-14T06:32:12.274Z,988.53
2022-09-14T06:33:12.255Z,988.63
2022-09-14T06:34:12.291Z,988.55
2022-09-14T06:35:12.607Z,988.51
2022-09-14T06:36:13.239Z,988.56
2022-09-14T06:37:12.242Z,988.57
2022-09-14T06:38:12.249Z,988.51
2022-09-14T06:39:12.244Z,988.54
2022-09-14T06:40:12.288Z,988.55
2022-09-14T06:41:12.201Z,988.55
2022-09-14T06:42:12.186Z,988.54
2022-09-14T06:43:12.195Z,988.60
2022-09-14T06:44:12.194Z,988.57
2022-09-14T06:45:12.190Z,988.56
2022-09-14T06:46:12.178Z,988.53
2022-09-14T06:47:12.178Z,988.54
2022-09-14T06:48:12.158Z,988.56
2022-09-14T06:49:12.134Z,988.58
2022-09-14T06:50:12.153Z,988.51
2022-09-14T06:51:12.120Z,988.59
2022-09-14T06:52:12.145Z,988.51
2022-09-14T06:53:12.138Z,988.52
2022-09-14T06:54:12.106Z,988.58
2022-09-14T06:55:12.110Z,988.56
2022-09-14T06:56:12.166Z,988.50
2022-09-14T06:57:12.091Z,988.52
2022-09-14T06:58:12.094Z,988.56
2022-09-14T06:59:12.078Z,988.57
2022-09-14T07:00:12.078Z,988.51
2022-09-14T07:01:12.115Z,988.56
2022-09-14T07:02:12.144Z,988.47
2022-09-14T07:03:12.119Z,988.51
2022-09-14T07:04:12.046Z,988.53
2022-09-14T07:05:12.054Z,988.55
2022-09-14T07:06:12.050Z,988.54
2022-09-14T07:07:12.062Z,988.54
2022-09-14T07:08:12.525Z,988.55
2022-09-14T07:09:13.017Z,988.56
2022-09-14T07:10:12.005Z,988.58
2022-09-14T07:11:12.191Z,988.61
2022-09-14T07:12:12.017Z,988.58
2022-09-14T07:13:11.994Z,988.61
2022-09-14T07:14:11.987Z,988.61
2022-09-14T07:15:11.974Z,988.62
2022-09-14T07:16:11.979Z,988.61
2022-09-14T07:17:12.026Z,988.62
2022-09-14T07:18:11.970Z,988.63
2022-09-14T07:19:11.962Z,988.63
2022-09-14T07:20:11.965Z,988.60
2022-09-14T07:21:11.943Z,988.62
2022-09-14T07:22:11.949Z,988.58
2022-09-14T07:23:11.949Z,988.64
2022-09-14T07:24:11.943Z,988.61
2022-09-14T07:25:11.915Z,988.64
2022-09-14T07:26:11.938Z,988.60
2022-09-14T07:27:11.920Z,988.58
2022-09-14T07:28:11.912Z,988.61
2022-09-14T07:29:11.919Z,988.59
2022-09-14T07:30:11.917Z,988.54
2022-09-14T07:31:11.923Z,988.59
2022-09-14T07:32:11.914Z,988.58
2022-09-14T07:33:11.874Z,988.62
2022-09-14T07:34:11.852Z,988.58
2022-09-14T07:35:11.855Z,988.58
2022-09-14T07:36:11.847Z,988.61
2022-09-14T07:37:11.859Z,988.60
2022-09-14T07:38:11.858Z,988.58
2022-09-14T07:39:11.838Z,988.58
2022-09-14T07:40:11.864Z,988.59
2022-09-14T07:41:11.847Z,988.60
2022-09-14T07:42:11.835Z,988.61
2022-09-14T07:43:11.815Z,988.60
2022-09-14T07:44:11.832Z,988.62
2022-09-14T07:45:11.784Z,988.62
2022-09-14T07:46:11.816Z,988.67
2022-09-14T07:47:11.790Z,988.71
2022-09-14T07:48:11.796Z,988.67
2022-09-14T07:49:11.793Z,988.67
2022-09-14T07:50:11.751Z,988.65
2022-09-14T07:51:11.762Z,988.66
2022-09-14T07:52:11.747Z,988.69
2022-09-14T07:53:11.738Z,988.68
2022-09-14T07:54:11.743Z,988.67
2022-09-14T07:55:11.763Z,988.67
2022-09-14T07:56:11.743Z,988.64
2022-09-14T07:57:11.705Z,988.65
2022-09-14T07:58:12.743Z,988.65
2022-09-14T07:59:34.631Z,988.61
2022-09-14T08:00:13.721Z,988.65
2022-09-14T08:01:11.751Z,988.66
2022-09-14T08:02:11.709Z,988.70
2022-09-14T08:03:11.671Z,988.66
2022-09-14T08:04:11.669Z,988.64
2022-09-14T08:05:11.662Z,988.63
2022-09-14T08:06:11.686Z,988.66
2022-09-14T08:07:11.634Z,988.60
2022-09-14T08:08:11.638Z,988.67
2022-09-14T08:09:11.674Z,988.66
2022-09-14T08:10:11.647Z,988.63
2022-09-14T08:11:11.623Z,988.67
2022-09-14T08:12:11.649Z,988.64
2022-09-14T08:13:11.598Z,988.68
2022-09-14T08:14:11.721Z,988.73
2022-09-14T08:15:11.602Z,988.67
2022-09-14T08:16:12.604Z,988.71
2022-09-14T08:17:11.582Z,988.73
2022-09-14T08:18:11.636Z,988.68
2022-09-14T08:19:11.562Z,988.64
2022-09-14T08:20:11.563Z,988.62
2022-09-14T08:21:11.572Z,988.63
2022-09-14T08:22:11.575Z,988.66
2022-09-14T08:23:11.541Z,988.68
2022-09-14T08:24:11.530Z,988.69
2022-09-14T08:25:11.538Z,988.59
2022-09-14T08:26:11.523Z,988.65
2022-09-14T08:27:12.327Z,988.58
2022-09-14T08:28:11.512Z,988.56
2022-09-14T08:29:11.519Z,988.54
2022-09-14T08:30:37.527Z,988.58
2022-09-14T08:31:11.593Z,988.63
2022-09-14T08:32:11.567Z,988.65
2022-09-14T08:33:11.497Z,988.65
2022-09-14T08:34:11.500Z,988.63
2022-09-14T08:35:11.491Z,988.54
2022-09-14T08:36:11.565Z,988.56
2022-09-14T08:37:11.996Z,988.57
2022-09-14T08:38:11.452Z,988.57
2022-09-14T08:39:11.441Z,988.57
2022-09-14T08:40:11.436Z,988.54
2022-09-14T08:41:11.416Z,988.50
2022-09-14T08:42:11.422Z,988.54
2022-09-14T08:43:11.416Z,988.55
2022-09-14T08:44:11.400Z,988.50
2022-09-14T08:45:11.404Z,988.54
2022-09-14T08:46:11.433Z,988.55
2022-09-14T08:47:11.371Z,988.50
2022-09-14T08:48:11.396Z,988.49
2022-09-14T08:49:11.401Z,988.51
2022-09-14T08:50:11.382Z,988.50
2022-09-14T08:51:11.347Z,988.50
2022-09-14T08:52:11.344Z,988.51
2022-09-14T08:53:11.341Z,988.48
2022-09-14T08:54:11.324Z,988.43
2022-09-14T08:55:11.352Z,988.51
2022-09-14T08:56:11.320Z,988.50
2022-09-14T08:57:11.311Z,988.47
2022-09-14T08:58:11.308Z,988.45
2022-09-14T08:59:11.309Z,988.50
2022-09-14T09:00:11.352Z,988.53
2022-09-14T09:01:11.362Z,988.51
2022-09-14T09:02:11.398Z,988.48
2022-09-14T09:03:11.272Z,988.51
2022-09-14T09:04:11.355Z,988.50
2022-09-14T09:05:45.054Z,988.50
2022-09-14T09:06:15.593Z,988.52
2022-09-14T09:07:12.226Z,988.57
2022-09-14T09:08:11.246Z,988.55
2022-09-14T09:09:11.221Z,988.57
2022-09-14T09:10:11.305Z,988.43
2022-09-14T09:11:11.232Z,988.46
2022-09-14T09:12:11.212Z,988.45
2022-09-14T09:13:12.201Z,988.41
2022-09-14T09:14:14.058Z,988.41
2022-09-14T09:15:12.179Z,988.45
2022-09-14T09:16:11.260Z,988.46
2022-09-14T09:17:11.183Z,988.41
2022-09-14T09:18:11.170Z,988.46
2022-09-14T09:19:11.163Z,988.48
2022-09-14T09:20:11.149Z,988.39
2022-09-14T09:21:11.154Z,988.44
2022-09-14T09:22:11.187Z,988.36
2022-09-14T09:23:11.134Z,988.38
2022-09-14T09:24:11.177Z,988.33
2022-09-14T09:25:11.116Z,988.35
2022-09-14T09:26:11.121Z,988.39
2022-09-14T09:27:11.162Z,988.38
2022-09-14T09:28:11.125Z,988.35
2022-09-14T09:29:11.136Z,988.38
2022-09-14T09:30:11.113Z,988.37
2022-09-14T09:31:14.650Z,988.37
2022-09-14T09:32:12.103Z,988.37
2022-09-14T09:33:11.077Z,988.33
2022-09-14T09:34:11.161Z,988.35
2022-09-14T09:35:11.076Z,988.34
2022-09-14T09:36:11.088Z,988.38
2022-09-14T09:37:11.049Z,988.38
2022-09-14T09:38:11.093Z,988.40
2022-09-14T09:39:11.039Z,988.32
2022-09-14T09:40:11.122Z,988.39
2022-09-14T09:41:11.028Z,988.43
2022-09-14T09:42:11.025Z,988.42
2022-09-14T09:43:11.016Z,988.42
2022-09-14T09:44:11.002Z,988.40
2022-09-14T09:45:11.008Z,988.41
2022-09-14T09:46:11.044Z,988.41
2022-09-14T09:47:11.096Z,988.40
2022-09-14T09:48:10.966Z,988.39
2022-09-14T09:49:11.011Z,988.44
2022-09-14T09:50:10.968Z,988.44
2022-09-14T09:51:12.009Z,988.44
2022-09-14T09:52:11.009Z,988.37
2022-09-14T09:53:11.001Z,988.42
2022-09-14T09:54:10.970Z,988.39
2022-09-14T09:55:10.937Z,988.41
2022-09-14T09:56:10.972Z,988.37
2022-09-14T09:57:10.928Z,988.39
2022-09-14T09:58:10.914Z,988.36
2022-09-14T09:59:10.928Z,988.40
2022-09-14T10:00:10.901Z,988.37
2022-09-14T10:01:12.616Z,988.40
2022-09-14T10:02:11.967Z,988.38
2022-09-14T10:03:10.879Z,988.32
2022-09-14T10:04:10.868Z,988.35
2022-09-14T10:05:10.926Z,988.35
2022-09-14T10:06:10.863Z,988.31
2022-09-14T10:07:10.847Z,988.32
2022-09-14T10:08:11.695Z,988.33
2022-09-14T10:09:11.863Z,988.24
2022-09-14T10:10:10.864Z,988.27
2022-09-14T10:11:10.843Z,988.27
2022-09-14T10:12:10.820Z,988.26
2022-09-14T10:13:10.807Z,988.28
2022-09-14T10:14:10.851Z,988.33
2022-09-14T10:15:10.814Z,988.25
2022-09-14T10:16:10.844Z,988.28
2022-09-14T10:17:10.785Z,988.27
2022-09-14T10:18:10.788Z,988.28
2022-09-14T10:19:10.787Z,988.23
2022-09-14T10:20:10.814Z,988.17
2022-09-14T10:21:10.777Z,988.11
2022-09-14T10:22:13.510Z,988.17
2022-09-14T10:23:11.773Z,988.17
2022-09-14T10:24:10.741Z,988.15
2022-09-14T10:25:10.889Z,988.11
2022-09-14T10:26:10.774Z,988.17
2022-09-14T10:27:10.725Z,988.17
2022-09-14T10:28:10.708Z,988.10
2022-09-14T10:29:10.717Z,988.13
2022-09-14T10:30:10.758Z,988.08
2022-09-14T10:31:10.774Z,988.16
2022-09-14T10:32:10.724Z,988.14
2022-09-14T10:33:10.696Z,988.13
2022-09-14T10:34:14.306Z,988.12
2022-09-14T10:35:11.682Z,988.10
2022-09-14T10:36:10.664Z,988.05
2022-09-14T10:37:11.780Z,988.10
2022-09-14T10:38:10.668Z,988.08
2022-09-14T10:39:10.715Z,988.04
2022-09-14T10:40:10.758Z,988.09
2022-09-14T10:41:10.664Z,988.06
2022-09-14T10:42:10.633Z,988.04
2022-09-14T10:43:10.628Z,987.97
2022-09-14T10:44:10.616Z,987.99
2022-09-14T10:45:10.637Z,988.01
2022-09-14T10:46:10.670Z,987.99
2022-09-14T10:47:10.605Z,987.97
2022-09-14T10:48:10.596Z,988.02
2022-09-14T10:49:10.608Z,988.02
2022-09-14T10:50:10.580Z,988.09
2022-09-14T10:51:10.600Z,988.05
2022-09-14T10:52:10.561Z,988.06
2022-09-14T10:53:10.568Z,988.08
2022-09-14T10:54:10.584Z,988.08
2022-09-14T10:55:10.567Z,988.11
2022-09-14T10:56:10.544Z,988.06
2022-09-14T10:57:10.548Z,988.05
2022-09-14T10:58:14.499Z,988.06
2022-09-14T10:59:12.517Z,988.08
2022-09-14T11:00:10.562Z,988.05
2022-09-14T11:01:10.505Z,988.02
2022-09-14T11:02:10.671Z,988.00
2022-09-14T11:03:10.600Z,987.98
2022-09-14T11:04:10.541Z,988.00
2022-09-14T11:05:10.477Z,987.98
2022-09-14T11:06:10.481Z,987.97
2022-09-14T11:07:10.478Z,988.04
2022-09-14T11:08:10.469Z,988.05
2022-09-14T11:09:10.461Z,988.07
2022-09-14T11:10:10.456Z,988.04
2022-09-14T11:11:11.550Z,988.10
2022-09-14T11:12:11.429Z,988.07
2022-09-14T11:13:10.429Z,988.06
2022-09-14T11:14:10.501Z,988.02
2022-09-14T11:15:10.457Z,988.06
2022-09-14T11:16:10.427Z,988.06
2022-09-14T11:17:10.388Z,988.03
2022-09-14T11:18:10.385Z,988.02
2022-09-14T11:19:10.428Z,987.95
2022-09-14T11:20:10.421Z,987.90
2022-09-14T11:21:10.401Z,987.94
2022-09-14T11:22:10.513Z,987.91
2022-09-14T11:23:10.417Z,987.96
2022-09-14T11:24:10.372Z,987.95
2022-09-14T11:25:10.337Z,987.97
2022-09-14T11:26:10.377Z,987.92
2022-09-14T11:27:10.469Z,987.90
2022-09-14T11:28:10.399Z,987.91
2022-09-14T11:29:10.347Z,987.86
2022-09-14T11:30:10.310Z,987.86
2022-09-14T11:31:10.385Z,987.86
2022-09-14T11:32:21.062Z,987.77
2022-09-14T11:33:12.282Z,987.79
2022-09-14T11:34:10.328Z,987.84
2022-09-14T11:35:10.326Z,987.81
2022-09-14T11:36:10.274Z,987.81
2022-09-14T11:37:10.292Z,987.80
2022-09-14T11:38:10.249Z,987.78
2022-09-14T11:39:10.249Z,987.75
2022-09-14T11:40:10.509Z,987.81
2022-09-14T11:41:10.245Z,987.81
2022-09-14T11:42:10.222Z,987.81
2022-09-14T11:43:10.216Z,987.76
2022-09-14T11:44:10.258Z,987.73
2022-09-14T11:45:10.215Z,987.73
2022-09-14T11:46:10.269Z,987.79
2022-09-14T11:47:10.204Z,987.87
2022-09-14T11:48:40.911Z,987.83
2022-09-14T11:49:12.173Z,987.84
2022-09-14T11:50:10.214Z,987.87
2022-09-14T11:51:10.169Z,987.79
2022-09-14T11:52:10.156Z,987.83
2022-09-14T11:53:10.180Z,987.80
2022-09-14T11:54:10.148Z,987.78
2022-09-14T11:55:10.144Z,987.82
2022-09-14T11:56:10.195Z,987.81
2022-09-14T11:57:10.131Z,987.82
2022-09-14T11:58:10.213Z,987.77
2022-09-14T11:59:11.024Z,987.76
2022-09-14T12:00:10.109Z,987.71
2022-09-14T12:01:10.701Z,987.75
2022-09-14T12:02:10.122Z,987.73
2022-09-14T12:03:10.175Z,987.81
2022-09-14T12:04:10.120Z,987.72
2022-09-14T12:05:10.069Z,987.71
2022-09-14T12:06:10.069Z,987.72
2022-09-14T12:07:10.079Z,987.73
2022-09-14T12:08:10.051Z,987.79
2022-09-14T12:09:10.044Z,987.77
2022-09-14T12:10:10.124Z,987.76
2022-09-14T12:11:10.080Z,987.78
2022-09-14T12:12:10.032Z,987.76
2022-09-14T12:13:10.016Z,987.71
2022-09-14T12:14:10.007Z,987.79
2022-09-14T12:15:10.002Z,987.70
2022-09-14T12:16:10.111Z,987.70
2022-09-14T12:17:29.006Z,987.72
2022-09-14T12:18:11.979Z,987.72
2022-09-14T12:19:10.008Z,987.76
2022-09-14T12:20:10.032Z,987.77
2022-09-14T12:21:09.967Z,987.72
2022-09-14T12:22:09.960Z,987.77
2022-09-14T12:23:09.981Z,987.72
2022-09-14T12:24:09.990Z,987.79
2022-09-14T12:25:09.945Z,987.81
2022-09-14T12:26:09.953Z,987.83
2022-09-14T12:27:09.991Z,987.82
2022-09-14T12:28:09.966Z,987.85